sensor_id;sensor_type;location;lat;lon;timestamp;P1;durP1;ratioP1;P2;durP2;ratioP2
32096;SDS011;18610;49.916;8.284;2023-09-07T00:00:30;11.23;;;5.93;;
32096;SDS011;18610;49.916;8.284;2023-09-07T00:02:58;8.95;;;5.32;;
32096;SDS011;18610;49.916;8.284;2023-09-07T00:05:25;12.95;;;5.05;;
32096;SDS011;18610;49.916;8.284;2023-09-07T00:07:51;7.72;;;5.57;;
32096;SDS011;18610;49.916;8.284;2023-09-07T00:10:18;9.15;;;5.32;;
32096;SDS011;18610;49.916;8.284;2023-09-07T00:12:45;7.10;;;4.70;;
32096;SDS011;18610;49.916;8.284;2023-09-07T00:15:11;8.48;;;4.53;;
32096;SDS011;18610;49.916;8.284;2023-09-07T00:17:38;11.57;;;5.70;;
32096;SDS011;18610;49.916;8.284;2023-09-07T00:20:06;10.38;;;6.40;;
32096;SDS011;18610;49.916;8.284;2023-09-07T00:22:36;12.43;;;5.57;;
32096;SDS011;18610;49.916;8.284;2023-09-07T00:25:03;8.60;;;5.65;;
32096;SDS011;18610;49.916;8.284;2023-09-07T00:27:31;9.98;;;5.85;;
32096;SDS011;18610;49.916;8.284;2023-09-07T00:29:58;7.78;;;5.40;;
32096;SDS011;18610;49.916;8.284;2023-09-07T00:32:24;11.20;;;6.30;;
32096;SDS011;18610;49.916;8.284;2023-09-07T00:34:50;12.80;;;5.28;;
32096;SDS011;18610;49.916;8.284;2023-09-07T00:37:18;7.40;;;5.00;;
32096;SDS011;18610;49.916;8.284;2023-09-07T00:39:45;8.40;;;5.70;;
32096;SDS011;18610;49.916;8.284;2023-09-07T00:42:12;11.85;;;5.45;;
32096;SDS011;18610;49.916;8.284;2023-09-07T00:44:38;8.32;;;5.60;;
32096;SDS011;18610;49.916;8.284;2023-09-07T00:47:05;9.00;;;6.05;;
32096;SDS011;18610;49.916;8.284;2023-09-07T00:49:32;8.98;;;5.28;;
32096;SDS011;18610;49.916;8.284;2023-09-07T00:51:58;11.45;;;5.72;;
32096;SDS011;18610;49.916;8.284;2023-09-07T00:54:26;11.27;;;5.70;;
32096;SDS011;18610;49.916;8.284;2023-09-07T00:56:55;6.70;;;5.18;;
32096;SDS011;18610;49.916;8.284;2023-09-07T00:59:22;10.13;;;5.45;;
32096;SDS011;18610;49.916;8.284;2023-09-07T01:01:49;10.25;;;5.65;;
32096;SDS011;18610;49.916;8.284;2023-09-07T01:04:17;7.45;;;5.13;;
32096;SDS011;18610;49.916;8.284;2023-09-07T01:06:44;14.07;;;5.90;;
32096;SDS011;18610;49.916;8.284;2023-09-07T01:09:19;12.27;;;5.53;;
32096;SDS011;18610;49.916;8.284;2023-09-07T01:11:48;9.90;;;5.07;;
32096;SDS011;18610;49.916;8.284;2023-09-07T01:14:17;7.82;;;5.30;;
32096;SDS011;18610;49.916;8.284;2023-09-07T01:16:44;8.73;;;5.65;;
32096;SDS011;18610;49.916;8.284;2023-09-07T01:19:11;9.52;;;4.95;;
32096;SDS011;18610;49.916;8.284;2023-09-07T01:21:39;8.43;;;5.15;;
32096;SDS011;18610;49.916;8.284;2023-09-07T01:24:07;7.57;;;5.30;;
32096;SDS011;18610;49.916;8.284;2023-09-07T01:26:35;9.00;;;5.35;;
32096;SDS011;18610;49.916;8.284;2023-09-07T01:29:03;7.35;;;5.57;;
32096;SDS011;18610;49.916;8.284;2023-09-07T01:31:30;8.27;;;4.70;;
32096;SDS011;18610;49.916;8.284;2023-09-07T01:34:00;7.95;;;5.38;;
32096;SDS011;18610;49.916;8.284;2023-09-07T01:36:27;9.15;;;5.90;;
32096;SDS011;18610;49.916;8.284;2023-09-07T01:38:55;7.70;;;5.13;;
32096;SDS011;18610;49.916;8.284;2023-09-07T01:41:22;8.40;;;5.05;;
32096;SDS011;18610;49.916;8.284;2023-09-07T01:43:48;8.75;;;4.90;;
32096;SDS011;18610;49.916;8.284;2023-09-07T01:46:15;6.45;;;4.88;;
32096;SDS011;18610;49.916;8.284;2023-09-07T01:48:42;9.07;;;5.60;;
32096;SDS011;18610;49.916;8.284;2023-09-07T01:51:08;10.23;;;5.72;;
32096;SDS011;18610;49.916;8.284;2023-09-07T01:53:35;7.22;;;5.70;;
32096;SDS011;18610;49.916;8.284;2023-09-07T01:56:03;10.98;;;4.72;;
32096;SDS011;18610;49.916;8.284;2023-09-07T01:58:30;14.40;;;5.53;;
32096;SDS011;18610;49.916;8.284;2023-09-07T02:00:57;10.23;;;5.43;;
32096;SDS011;18610;49.916;8.284;2023-09-07T02:03:24;10.18;;;5.95;;
32096;SDS011;18610;49.916;8.284;2023-09-07T02:05:51;9.48;;;6.55;;
32096;SDS011;18610;49.916;8.284;2023-09-07T02:08:18;9.35;;;5.72;;
32096;SDS011;18610;49.916;8.284;2023-09-07T02:10:45;13.85;;;5.57;;
32096;SDS011;18610;49.916;8.284;2023-09-07T02:13:13;7.07;;;5.45;;
32096;SDS011;18610;49.916;8.284;2023-09-07T02:15:39;8.70;;;4.93;;
32096;SDS011;18610;49.916;8.284;2023-09-07T02:18:06;9.90;;;5.35;;
32096;SDS011;18610;49.916;8.284;2023-09-07T02:20:33;9.98;;;5.65;;
32096;SDS011;18610;49.916;8.284;2023-09-07T02:23:00;10.77;;;5.10;;
32096;SDS011;18610;49.916;8.284;2023-09-07T02:25:27;16.65;;;5.65;;
32096;SDS011;18610;49.916;8.284;2023-09-07T02:27:55;6.45;;;4.97;;
32096;SDS011;18610;49.916;8.284;2023-09-07T02:30:23;10.25;;;5.13;;
32096;SDS011;18610;49.916;8.284;2023-09-07T02:32:50;7.18;;;4.50;;
32096;SDS011;18610;49.916;8.284;2023-09-07T02:35:16;7.20;;;5.22;;
32096;SDS011;18610;49.916;8.284;2023-09-07T02:37:43;9.60;;;5.38;;
32096;SDS011;18610;49.916;8.284;2023-09-07T02:40:10;9.63;;;5.45;;
32096;SDS011;18610;49.916;8.284;2023-09-07T02:42:37;8.20;;;5.03;;
32096;SDS011;18610;49.916;8.284;2023-09-07T02:45:04;7.68;;;5.63;;
32096;SDS011;18610;49.916;8.284;2023-09-07T02:47:33;8.70;;;5.13;;
32096;SDS011;18610;49.916;8.284;2023-09-07T02:49:59;8.80;;;5.38;;
32096;SDS011;18610;49.916;8.284;2023-09-07T02:52:26;8.35;;;5.78;;
32096;SDS011;18610;49.916;8.284;2023-09-07T02:54:53;8.60;;;5.80;;
32096;SDS011;18610;49.916;8.284;2023-09-07T02:57:20;12.38;;;4.95;;
32096;SDS011;18610;49.916;8.284;2023-09-07T02:59:46;9.93;;;5.80;;
32096;SDS011;18610;49.916;8.284;2023-09-07T03:02:13;11.18;;;5.75;;
32096;SDS011;18610;49.916;8.284;2023-09-07T03:04:41;11.85;;;5.50;;
32096;SDS011;18610;49.916;8.284;2023-09-07T03:07:07;9.00;;;5.72;;
32096;SDS011;18610;49.916;8.284;2023-09-07T03:09:34;5.63;;;4.95;;
32096;SDS011;18610;49.916;8.284;2023-09-07T03:12:01;8.80;;;5.60;;
32096;SDS011;18610;49.916;8.284;2023-09-07T03:14:28;12.32;;;5.55;;
32096;SDS011;18610;49.916;8.284;2023-09-07T03:16:54;10.43;;;5.22;;
32096;SDS011;18610;49.916;8.284;2023-09-07T03:19:21;8.77;;;5.18;;
32096;SDS011;18610;49.916;8.284;2023-09-07T03:21:49;6.85;;;4.93;;
32096;SDS011;18610;49.916;8.284;2023-09-07T03:24:16;10.40;;;5.38;;
32096;SDS011;18610;49.916;8.284;2023-09-07T03:26:42;8.25;;;5.03;;
32096;SDS011;18610;49.916;8.284;2023-09-07T03:29:09;9.02;;;5.35;;
32096;SDS011;18610;49.916;8.284;2023-09-07T03:31:36;9.77;;;5.65;;
32096;SDS011;18610;49.916;8.284;2023-09-07T03:34:03;9.32;;;5.70;;
32096;SDS011;18610;49.916;8.284;2023-09-07T03:36:30;8.38;;;5.53;;
32096;SDS011;18610;49.916;8.284;2023-09-07T03:38:58;7.18;;;5.03;;
32096;SDS011;18610;49.916;8.284;2023-09-07T03:41:25;5.03;;;4.53;;
32096;SDS011;18610;49.916;8.284;2023-09-07T03:43:55;11.98;;;5.82;;
32096;SDS011;18610;49.916;8.284;2023-09-07T03:46:22;7.05;;;4.80;;
32096;SDS011;18610;49.916;8.284;2023-09-07T03:48:48;10.30;;;4.93;;
32096;SDS011;18610;49.916;8.284;2023-09-07T03:51:15;9.75;;;4.90;;
32096;SDS011;18610;49.916;8.284;2023-09-07T03:53:42;7.82;;;5.28;;
32096;SDS011;18610;49.916;8.284;2023-09-07T03:56:10;15.40;;;5.72;;
32096;SDS011;18610;49.916;8.284;2023-09-07T03:58:37;6.88;;;4.97;;
32096;SDS011;18610;49.916;8.284;2023-09-07T04:01:04;6.15;;;4.95;;
32096;SDS011;18610;49.916;8.284;2023-09-07T04:03:30;7.00;;;5.45;;
32096;SDS011;18610;49.916;8.284;2023-09-07T04:05:57;7.25;;;4.95;;
32096;SDS011;18610;49.916;8.284;2023-09-07T04:08:24;10.55;;;4.90;;
32096;SDS011;18610;49.916;8.284;2023-09-07T04:10:51;6.30;;;4.95;;
32096;SDS011;18610;49.916;8.284;2023-09-07T04:13:19;7.78;;;4.75;;
32096;SDS011;18610;49.916;8.284;2023-09-07T04:15:46;9.02;;;5.55;;
32096;SDS011;18610;49.916;8.284;2023-09-07T04:18:13;15.23;;;5.97;;
32096;SDS011;18610;49.916;8.284;2023-09-07T04:20:41;6.70;;;4.97;;
32096;SDS011;18610;49.916;8.284;2023-09-07T04:23:08;7.18;;;4.95;;
32096;SDS011;18610;49.916;8.284;2023-09-07T04:25:35;10.30;;;5.32;;
32096;SDS011;18610;49.916;8.284;2023-09-07T04:28:04;9.52;;;5.00;;
32096;SDS011;18610;49.916;8.284;2023-09-07T04:30:32;10.90;;;5.22;;
32096;SDS011;18610;49.916;8.284;2023-09-07T04:32:59;8.52;;;5.20;;
32096;SDS011;18610;49.916;8.284;2023-09-07T04:35:27;6.47;;;5.15;;
32096;SDS011;18610;49.916;8.284;2023-09-07T04:37:55;10.25;;;5.80;;
32096;SDS011;18610;49.916;8.284;2023-09-07T04:40:22;7.38;;;5.45;;
32096;SDS011;18610;49.916;8.284;2023-09-07T04:42:49;12.60;;;5.78;;
32096;SDS011;18610;49.916;8.284;2023-09-07T04:45:16;8.35;;;5.32;;
32096;SDS011;18610;49.916;8.284;2023-09-07T04:47:44;9.23;;;5.55;;
32096;SDS011;18610;49.916;8.284;2023-09-07T04:50:11;16.45;;;4.75;;
32096;SDS011;18610;49.916;8.284;2023-09-07T04:52:38;12.77;;;5.35;;
32096;SDS011;18610;49.916;8.284;2023-09-07T04:55:05;9.75;;;6.00;;
32096;SDS011;18610;49.916;8.284;2023-09-07T04:57:32;12.02;;;6.30;;
32096;SDS011;18610;49.916;8.284;2023-09-07T04:59:59;8.73;;;5.13;;
32096;SDS011;18610;49.916;8.284;2023-09-07T05:02:26;10.82;;;5.82;;
32096;SDS011;18610;49.916;8.284;2023-09-07T05:04:54;8.82;;;5.35;;
32096;SDS011;18610;49.916;8.284;2023-09-07T05:07:20;12.30;;;5.18;;
32096;SDS011;18610;49.916;8.284;2023-09-07T05:09:47;15.88;;;5.57;;
32096;SDS011;18610;49.916;8.284;2023-09-07T05:12:14;14.63;;;5.40;;
32096;SDS011;18610;49.916;8.284;2023-09-07T05:14:43;11.60;;;5.45;;
32096;SDS011;18610;49.916;8.284;2023-09-07T05:17:10;9.23;;;5.28;;
32096;SDS011;18610;49.916;8.284;2023-09-07T05:19:37;7.38;;;5.57;;
32096;SDS011;18610;49.916;8.284;2023-09-07T05:22:05;7.50;;;5.63;;
32096;SDS011;18610;49.916;8.284;2023-09-07T05:24:31;12.55;;;5.38;;
32096;SDS011;18610;49.916;8.284;2023-09-07T05:26:58;8.00;;;5.00;;
32096;SDS011;18610;49.916;8.284;2023-09-07T05:29:25;9.63;;;5.68;;
32096;SDS011;18610;49.916;8.284;2023-09-07T05:31:51;14.02;;;5.95;;
32096;SDS011;18610;49.916;8.284;2023-09-07T05:34:18;13.25;;;6.10;;
32096;SDS011;18610;49.916;8.284;2023-09-07T05:36:45;9.15;;;6.60;;
32096;SDS011;18610;49.916;8.284;2023-09-07T05:39:13;14.60;;;5.72;;
32096;SDS011;18610;49.916;8.284;2023-09-07T05:41:39;12.48;;;5.50;;
32096;SDS011;18610;49.916;8.284;2023-09-07T05:44:06;16.50;;;5.65;;
32096;SDS011;18610;49.916;8.284;2023-09-07T05:46:33;8.93;;;5.50;;
32096;SDS011;18610;49.916;8.284;2023-09-07T05:48:59;8.80;;;6.25;;
32096;SDS011;18610;49.916;8.284;2023-09-07T05:51:26;8.77;;;4.90;;
32096;SDS011;18610;49.916;8.284;2023-09-07T05:53:53;8.63;;;4.88;;
32096;SDS011;18610;49.916;8.284;2023-09-07T05:56:21;10.15;;;5.63;;
32096;SDS011;18610;49.916;8.284;2023-09-07T05:58:48;7.75;;;5.60;;
32096;SDS011;18610;49.916;8.284;2023-09-07T06:01:15;9.57;;;5.68;;
32096;SDS011;18610;49.916;8.284;2023-09-07T06:03:41;11.00;;;5.38;;
32096;SDS011;18610;49.916;8.284;2023-09-07T06:06:08;12.55;;;5.80;;
32096;SDS011;18610;49.916;8.284;2023-09-07T06:08:35;20.42;;;5.03;;
32096;SDS011;18610;49.916;8.284;2023-09-07T06:11:01;7.55;;;5.22;;
32096;SDS011;18610;49.916;8.284;2023-09-07T06:13:29;9.68;;;5.22;;
32096;SDS011;18610;49.916;8.284;2023-09-07T06:15:56;9.70;;;5.50;;
32096;SDS011;18610;49.916;8.284;2023-09-07T06:18:25;10.75;;;5.18;;
32096;SDS011;18610;49.916;8.284;2023-09-07T06:20:52;15.88;;;5.43;;
32096;SDS011;18610;49.916;8.284;2023-09-07T06:23:18;5.72;;;4.75;;
32096;SDS011;18610;49.916;8.284;2023-09-07T06:25:45;8.15;;;5.35;;
32096;SDS011;18610;49.916;8.284;2023-09-07T06:28:12;8.93;;;5.32;;
32096;SDS011;18610;49.916;8.284;2023-09-07T06:30:40;10.93;;;4.95;;
32096;SDS011;18610;49.916;8.284;2023-09-07T06:33:07;11.32;;;5.32;;
32096;SDS011;18610;49.916;8.284;2023-09-07T06:35:33;14.63;;;5.18;;
32096;SDS011;18610;49.916;8.284;2023-09-07T06:38:00;14.60;;;5.45;;
32096;SDS011;18610;49.916;8.284;2023-09-07T06:40:27;6.35;;;4.70;;
32096;SDS011;18610;49.916;8.284;2023-09-07T06:42:54;8.00;;;4.57;;
32096;SDS011;18610;49.916;8.284;2023-09-07T06:45:22;8.52;;;4.88;;
32096;SDS011;18610;49.916;8.284;2023-09-07T06:47:50;9.63;;;5.00;;
32096;SDS011;18610;49.916;8.284;2023-09-07T06:50:17;6.95;;;4.47;;
32096;SDS011;18610;49.916;8.284;2023-09-07T06:52:44;7.32;;;4.30;;
32096;SDS011;18610;49.916;8.284;2023-09-07T06:55:11;5.47;;;4.47;;
32096;SDS011;18610;49.916;8.284;2023-09-07T06:57:37;6.63;;;4.90;;
32096;SDS011;18610;49.916;8.284;2023-09-07T07:00:04;6.65;;;4.50;;
32096;SDS011;18610;49.916;8.284;2023-09-07T07:02:32;9.10;;;5.28;;
32096;SDS011;18610;49.916;8.284;2023-09-07T07:05:00;14.75;;;4.70;;
32096;SDS011;18610;49.916;8.284;2023-09-07T07:07:28;6.50;;;4.43;;
32096;SDS011;18610;49.916;8.284;2023-09-07T07:09:55;14.57;;;5.03;;
32096;SDS011;18610;49.916;8.284;2023-09-07T07:12:22;9.48;;;5.35;;
32096;SDS011;18610;49.916;8.284;2023-09-07T07:14:49;15.10;;;5.38;;
32096;SDS011;18610;49.916;8.284;2023-09-07T07:17:16;7.68;;;4.75;;
32096;SDS011;18610;49.916;8.284;2023-09-07T07:19:42;10.60;;;5.15;;
32096;SDS011;18610;49.916;8.284;2023-09-07T07:22:10;11.80;;;4.57;;
32096;SDS011;18610;49.916;8.284;2023-09-07T07:24:40;5.85;;;4.50;;
32096;SDS011;18610;49.916;8.284;2023-09-07T07:27:06;9.98;;;4.70;;
32096;SDS011;18610;49.916;8.284;2023-09-07T07:29:33;6.20;;;4.40;;
32096;SDS011;18610;49.916;8.284;2023-09-07T07:32:00;7.63;;;4.03;;
32096;SDS011;18610;49.916;8.284;2023-09-07T07:34:26;6.78;;;4.30;;
32096;SDS011;18610;49.916;8.284;2023-09-07T07:36:53;7.72;;;4.57;;
32096;SDS011;18610;49.916;8.284;2023-09-07T07:39:21;15.75;;;4.63;;
32096;SDS011;18610;49.916;8.284;2023-09-07T07:41:48;17.63;;;5.00;;
32096;SDS011;18610;49.916;8.284;2023-09-07T07:44:14;7.43;;;3.95;;
32096;SDS011;18610;49.916;8.284;2023-09-07T07:46:41;6.68;;;3.92;;
32096;SDS011;18610;49.916;8.284;2023-09-07T07:49:08;8.95;;;4.93;;
32096;SDS011;18610;49.916;8.284;2023-09-07T07:51:34;9.00;;;3.72;;
32096;SDS011;18610;49.916;8.284;2023-09-07T07:54:01;7.35;;;4.18;;
32096;SDS011;18610;49.916;8.284;2023-09-07T07:56:29;5.63;;;4.22;;
32096;SDS011;18610;49.916;8.284;2023-09-07T07:58:56;6.45;;;4.28;;
32096;SDS011;18610;49.916;8.284;2023-09-07T08:01:23;5.75;;;4.07;;
32096;SDS011;18610;49.916;8.284;2023-09-07T08:03:51;6.97;;;4.55;;
32096;SDS011;18610;49.916;8.284;2023-09-07T08:06:18;5.55;;;4.22;;
32096;SDS011;18610;49.916;8.284;2023-09-07T08:08:45;7.32;;;4.38;;
32096;SDS011;18610;49.916;8.284;2023-09-07T08:11:11;4.78;;;4.00;;
32096;SDS011;18610;49.916;8.284;2023-09-07T08:13:40;6.40;;;4.22;;
32096;SDS011;18610;49.916;8.284;2023-09-07T08:16:11;4.43;;;3.55;;
32096;SDS011;18610;49.916;8.284;2023-09-07T08:18:38;5.25;;;4.22;;
32096;SDS011;18610;49.916;8.284;2023-09-07T08:21:06;8.27;;;4.30;;
32096;SDS011;18610;49.916;8.284;2023-09-07T08:23:32;5.65;;;4.53;;
32096;SDS011;18610;49.916;8.284;2023-09-07T08:25:59;7.70;;;4.43;;
32096;SDS011;18610;49.916;8.284;2023-09-07T08:28:25;9.25;;;4.53;;
32096;SDS011;18610;49.916;8.284;2023-09-07T08:30:55;13.38;;;4.40;;
32096;SDS011;18610;49.916;8.284;2023-09-07T08:33:24;10.18;;;4.32;;
32096;SDS011;18610;49.916;8.284;2023-09-07T08:35:54;12.13;;;4.20;;
32096;SDS011;18610;49.916;8.284;2023-09-07T08:38:22;9.27;;;4.28;;
32096;SDS011;18610;49.916;8.284;2023-09-07T08:40:53;5.70;;;4.07;;
32096;SDS011;18610;49.916;8.284;2023-09-07T08:43:21;8.32;;;4.13;;
32096;SDS011;18610;49.916;8.284;2023-09-07T08:45:49;8.65;;;3.88;;
32096;SDS011;18610;49.916;8.284;2023-09-07T08:48:20;12.18;;;4.22;;
32096;SDS011;18610;49.916;8.284;2023-09-07T08:50:47;15.85;;;4.35;;
32096;SDS011;18610;49.916;8.284;2023-09-07T08:53:17;4.65;;;3.85;;
32096;SDS011;18610;49.916;8.284;2023-09-07T08:55:45;8.27;;;3.45;;
32096;SDS011;18610;49.916;8.284;2023-09-07T08:58:12;5.80;;;3.13;;
32096;SDS011;18610;49.916;8.284;2023-09-07T09:00:39;6.85;;;4.20;;
32096;SDS011;18610;49.916;8.284;2023-09-07T09:03:08;7.93;;;4.25;;
32096;SDS011;18610;49.916;8.284;2023-09-07T09:05:36;10.45;;;3.85;;
32096;SDS011;18610;49.916;8.284;2023-09-07T09:08:05;5.80;;;3.63;;
32096;SDS011;18610;49.916;8.284;2023-09-07T09:10:32;5.95;;;3.92;;
32096;SDS011;18610;49.916;8.284;2023-09-07T09:12:58;6.40;;;3.63;;
32096;SDS011;18610;49.916;8.284;2023-09-07T09:15:25;11.45;;;4.32;;
32096;SDS011;18610;49.916;8.284;2023-09-07T09:17:53;10.52;;;3.80;;
32096;SDS011;18610;49.916;8.284;2023-09-07T09:20:20;6.03;;;4.68;;
32096;SDS011;18610;49.916;8.284;2023-09-07T09:22:51;6.28;;;3.40;;
32096;SDS011;18610;49.916;8.284;2023-09-07T09:25:18;6.35;;;3.90;;
32096;SDS011;18610;49.916;8.284;2023-09-07T09:27:45;8.90;;;3.97;;
32096;SDS011;18610;49.916;8.284;2023-09-07T09:30:12;11.02;;;3.67;;
32096;SDS011;18610;49.916;8.284;2023-09-07T09:32:41;5.63;;;3.97;;
32096;SDS011;18610;49.916;8.284;2023-09-07T09:35:09;9.52;;;3.38;;
32096;SDS011;18610;49.916;8.284;2023-09-07T09:37:42;9.50;;;3.92;;
32096;SDS011;18610;49.916;8.284;2023-09-07T09:40:12;5.88;;;3.95;;
32096;SDS011;18610;49.916;8.284;2023-09-07T09:42:40;9.93;;;4.53;;
32096;SDS011;18610;49.916;8.284;2023-09-07T09:45:09;13.43;;;4.88;;
32096;SDS011;18610;49.916;8.284;2023-09-07T09:47:38;8.90;;;3.65;;
32096;SDS011;18610;49.916;8.284;2023-09-07T09:50:06;9.70;;;3.55;;
32096;SDS011;18610;49.916;8.284;2023-09-07T09:52:34;7.35;;;4.20;;
32096;SDS011;18610;49.916;8.284;2023-09-07T09:55:02;6.18;;;3.97;;
32096;SDS011;18610;49.916;8.284;2023-09-07T09:57:34;9.57;;;4.72;;
32096;SDS011;18610;49.916;8.284;2023-09-07T10:00:01;8.60;;;3.58;;
32096;SDS011;18610;49.916;8.284;2023-09-07T10:02:35;5.88;;;4.00;;
32096;SDS011;18610;49.916;8.284;2023-09-07T10:05:03;4.55;;;3.50;;
32096;SDS011;18610;49.916;8.284;2023-09-07T10:07:41;6.83;;;4.03;;
32096;SDS011;18610;49.916;8.284;2023-09-07T10:10:09;10.57;;;4.45;;
32096;SDS011;18610;49.916;8.284;2023-09-07T10:12:41;6.60;;;4.00;;
32096;SDS011;18610;49.916;8.284;2023-09-07T10:15:19;6.90;;;3.90;;
32096;SDS011;18610;49.916;8.284;2023-09-07T10:17:46;10.43;;;4.13;;
32096;SDS011;18610;49.916;8.284;2023-09-07T10:20:15;9.70;;;3.78;;
32096;SDS011;18610;49.916;8.284;2023-09-07T10:22:42;4.35;;;3.47;;
32096;SDS011;18610;49.916;8.284;2023-09-07T10:25:19;3.72;;;3.42;;
32096;SDS011;18610;49.916;8.284;2023-09-07T10:27:48;6.03;;;4.05;;
32096;SDS011;18610;49.916;8.284;2023-09-07T10:30:15;4.63;;;3.60;;
32096;SDS011;18610;49.916;8.284;2023-09-07T10:32:44;6.00;;;3.30;;
32096;SDS011;18610;49.916;8.284;2023-09-07T10:35:13;5.22;;;3.72;;
32096;SDS011;18610;49.916;8.284;2023-09-07T10:37:40;10.23;;;3.60;;
32096;SDS011;18610;49.916;8.284;2023-09-07T10:40:09;4.20;;;3.25;;
32096;SDS011;18610;49.916;8.284;2023-09-07T10:42:36;5.53;;;4.13;;
32096;SDS011;18610;49.916;8.284;2023-09-07T10:45:12;7.85;;;3.63;;
32096;SDS011;18610;49.916;8.284;2023-09-07T10:47:41;5.32;;;3.92;;
32096;SDS011;18610;49.916;8.284;2023-09-07T10:50:10;19.13;;;4.38;;
32096;SDS011;18610;49.916;8.284;2023-09-07T10:52:38;9.00;;;3.38;;
32096;SDS011;18610;49.916;8.284;2023-09-07T10:55:06;7.88;;;3.42;;
32096;SDS011;18610;49.916;8.284;2023-09-07T10:57:40;7.00;;;2.75;;
32096;SDS011;18610;49.916;8.284;2023-09-07T11:00:08;6.40;;;3.13;;
32096;SDS011;18610;49.916;8.284;2023-09-07T11:02:37;5.35;;;3.20;;
32096;SDS011;18610;49.916;8.284;2023-09-07T11:05:04;4.35;;;3.30;;
32096;SDS011;18610;49.916;8.284;2023-09-07T11:07:31;7.00;;;3.22;;
32096;SDS011;18610;49.916;8.284;2023-09-07T11:09:58;5.30;;;2.95;;
32096;SDS011;18610;49.916;8.284;2023-09-07T11:12:25;4.00;;;3.45;;
32096;SDS011;18610;49.916;8.284;2023-09-07T11:14:51;6.20;;;3.65;;
32096;SDS011;18610;49.916;8.284;2023-09-07T11:17:25;4.82;;;3.03;;
32096;SDS011;18610;49.916;8.284;2023-09-07T11:19:54;8.05;;;3.05;;
32096;SDS011;18610;49.916;8.284;2023-09-07T11:22:21;4.40;;;3.40;;
32096;SDS011;18610;49.916;8.284;2023-09-07T11:24:48;4.45;;;3.08;;
32096;SDS011;18610;49.916;8.284;2023-09-07T11:27:16;9.75;;;3.08;;
32096;SDS011;18610;49.916;8.284;2023-09-07T11:29:49;9.02;;;3.08;;
32096;SDS011;18610;49.916;8.284;2023-09-07T11:32:17;7.10;;;3.20;;
32096;SDS011;18610;49.916;8.284;2023-09-07T11:34:46;7.05;;;2.55;;
32096;SDS011;18610;49.916;8.284;2023-09-07T11:37:15;4.68;;;3.25;;
32096;SDS011;18610;49.916;8.284;2023-09-07T11:39:42;7.63;;;3.33;;
32096;SDS011;18610;49.916;8.284;2023-09-07T11:42:09;5.85;;;3.20;;
32096;SDS011;18610;49.916;8.284;2023-09-07T11:44:36;9.25;;;2.95;;
32096;SDS011;18610;49.916;8.284;2023-09-07T11:47:03;4.30;;;3.75;;
32096;SDS011;18610;49.916;8.284;2023-09-07T11:49:29;8.40;;;3.78;;
32096;SDS011;18610;49.916;8.284;2023-09-07T11:51:57;5.43;;;3.70;;
32096;SDS011;18610;49.916;8.284;2023-09-07T11:54:25;12.52;;;4.35;;
32096;SDS011;18610;49.916;8.284;2023-09-07T11:56:52;5.53;;;3.17;;
32096;SDS011;18610;49.916;8.284;2023-09-07T11:59:18;9.73;;;3.35;;
32096;SDS011;18610;49.916;8.284;2023-09-07T12:01:45;17.50;;;4.00;;
32096;SDS011;18610;49.916;8.284;2023-09-07T12:04:12;14.13;;;3.70;;
32096;SDS011;18610;49.916;8.284;2023-09-07T12:06:40;15.00;;;3.97;;
32096;SDS011;18610;49.916;8.284;2023-09-07T12:09:07;9.00;;;3.38;;
32096;SDS011;18610;49.916;8.284;2023-09-07T12:11:35;18.27;;;3.72;;
32096;SDS011;18610;49.916;8.284;2023-09-07T12:14:02;18.95;;;3.80;;
32096;SDS011;18610;49.916;8.284;2023-09-07T12:16:30;40.78;;;4.60;;
32096;SDS011;18610;49.916;8.284;2023-09-07T12:18:57;9.48;;;3.70;;
32096;SDS011;18610;49.916;8.284;2023-09-07T12:21:24;9.00;;;3.40;;
32096;SDS011;18610;49.916;8.284;2023-09-07T12:23:50;60.47;;;5.50;;
32096;SDS011;18610;49.916;8.284;2023-09-07T12:26:17;30.90;;;5.90;;
32096;SDS011;18610;49.916;8.284;2023-09-07T12:28:47;51.83;;;5.07;;
32096;SDS011;18610;49.916;8.284;2023-09-07T12:31:14;17.48;;;3.63;;
32096;SDS011;18610;49.916;8.284;2023-09-07T12:33:41;39.45;;;4.00;;
32096;SDS011;18610;49.916;8.284;2023-09-07T12:36:08;60.33;;;6.07;;
32096;SDS011;18610;49.916;8.284;2023-09-07T12:38:36;64.35;;;5.05;;
32096;SDS011;18610;49.916;8.284;2023-09-07T12:41:03;5.53;;;3.50;;
32096;SDS011;18610;49.916;8.284;2023-09-07T12:43:30;11.40;;;3.47;;
32096;SDS011;18610;49.916;8.284;2023-09-07T12:45:58;35.13;;;4.55;;
32096;SDS011;18610;49.916;8.284;2023-09-07T12:48:25;17.10;;;3.00;;
32096;SDS011;18610;49.916;8.284;2023-09-07T12:50:51;29.52;;;4.70;;
32096;SDS011;18610;49.916;8.284;2023-09-07T12:53:19;5.68;;;3.10;;
32096;SDS011;18610;49.916;8.284;2023-09-07T12:55:49;8.23;;;3.33;;
32096;SDS011;18610;49.916;8.284;2023-09-07T12:58:16;32.47;;;4.90;;
32096;SDS011;18610;49.916;8.284;2023-09-07T13:00:43;25.05;;;4.00;;
32096;SDS011;18610;49.916;8.284;2023-09-07T13:03:11;39.72;;;4.90;;
32096;SDS011;18610;49.916;8.284;2023-09-07T13:05:38;45.28;;;4.85;;
32096;SDS011;18610;49.916;8.284;2023-09-07T13:08:04;48.85;;;5.80;;
32096;SDS011;18610;49.916;8.284;2023-09-07T13:10:31;21.80;;;3.53;;
32096;SDS011;18610;49.916;8.284;2023-09-07T13:12:58;9.10;;;3.17;;
32096;SDS011;18610;49.916;8.284;2023-09-07T13:15:25;8.35;;;3.40;;
32096;SDS011;18610;49.916;8.284;2023-09-07T13:17:51;7.57;;;3.60;;
32096;SDS011;18610;49.916;8.284;2023-09-07T13:20:20;6.82;;;3.55;;
32096;SDS011;18610;49.916;8.284;2023-09-07T13:22:46;9.95;;;3.70;;
32096;SDS011;18610;49.916;8.284;2023-09-07T13:25:13;16.60;;;2.97;;
32096;SDS011;18610;49.916;8.284;2023-09-07T13:27:40;15.02;;;3.03;;
32096;SDS011;18610;49.916;8.284;2023-09-07T13:30:07;4.47;;;3.08;;
32096;SDS011;18610;49.916;8.284;2023-09-07T13:32:34;8.20;;;3.00;;
32096;SDS011;18610;49.916;8.284;2023-09-07T13:35:00;90.25;;;7.95;;
32096;SDS011;18610;49.916;8.284;2023-09-07T13:37:29;7.40;;;3.33;;
32096;SDS011;18610;49.916;8.284;2023-09-07T13:39:55;12.93;;;3.78;;
32096;SDS011;18610;49.916;8.284;2023-09-07T13:42:22;32.00;;;3.65;;
32096;SDS011;18610;49.916;8.284;2023-09-07T13:44:48;8.18;;;3.38;;
32096;SDS011;18610;49.916;8.284;2023-09-07T13:47:15;6.43;;;2.92;;
32096;SDS011;18610;49.916;8.284;2023-09-07T13:49:42;6.97;;;2.97;;
32096;SDS011;18610;49.916;8.284;2023-09-07T13:52:08;6.15;;;2.95;;
32096;SDS011;18610;49.916;8.284;2023-09-07T13:54:36;8.18;;;3.95;;
32096;SDS011;18610;49.916;8.284;2023-09-07T13:57:03;4.40;;;3.10;;
32096;SDS011;18610;49.916;8.284;2023-09-07T13:59:30;7.45;;;3.50;;
32096;SDS011;18610;49.916;8.284;2023-09-07T14:01:59;9.07;;;3.55;;
32096;SDS011;18610;49.916;8.284;2023-09-07T14:04:26;7.72;;;3.72;;
32096;SDS011;18610;49.916;8.284;2023-09-07T14:06:53;10.55;;;2.92;;
32096;SDS011;18610;49.916;8.284;2023-09-07T14:09:20;8.45;;;3.00;;
32096;SDS011;18610;49.916;8.284;2023-09-07T14:11:49;7.88;;;3.65;;
32096;SDS011;18610;49.916;8.284;2023-09-07T14:14:16;9.52;;;3.40;;
32096;SDS011;18610;49.916;8.284;2023-09-07T14:16:43;4.53;;;3.15;;
32096;SDS011;18610;49.916;8.284;2023-09-07T14:19:10;6.95;;;3.22;;
32096;SDS011;18610;49.916;8.284;2023-09-07T14:21:36;8.40;;;4.28;;
32096;SDS011;18610;49.916;8.284;2023-09-07T14:24:03;4.68;;;2.95;;
32096;SDS011;18610;49.916;8.284;2023-09-07T14:26:30;8.38;;;3.33;;
32096;SDS011;18610;49.916;8.284;2023-09-07T14:28:58;8.13;;;2.97;;
32096;SDS011;18610;49.916;8.284;2023-09-07T14:31:25;8.63;;;2.90;;
32096;SDS011;18610;49.916;8.284;2023-09-07T14:33:51;10.57;;;2.90;;
32096;SDS011;18610;49.916;8.284;2023-09-07T14:36:18;4.38;;;3.08;;
32096;SDS011;18610;49.916;8.284;2023-09-07T14:38:45;9.32;;;3.47;;
32096;SDS011;18610;49.916;8.284;2023-09-07T14:41:11;24.05;;;4.93;;
32096;SDS011;18610;49.916;8.284;2023-09-07T14:43:43;4.57;;;3.08;;